Time;durP1;ratioP1;P1;durP2;ratioP2;P2;SDS_P1;SDS_P2;PMS_P1;PMS_P2;Temp;Humidity;BMP_temperature;BMP_pressure;BME280_temperature;BME280_humidity;BME280_pressure;Samples;Min_cycle;Max_cycle;Signal;HPM_P1;HPM_P2
2023/03/18 00:00:29;;;;;;;12.60;5.43;;;11.00;99.90;;;;;;5061145;28;20268;-70
2023/03/18 00:02:57;;;;;;;13.43;5.50;;;11.00;99.90;;;;;;5061005;28;20206;-70
2023/03/18 00:05:25;;;;;;;12.17;5.00;;;11.00;99.90;;;;;;5060949;28;20681;-70
2023/03/18 00:07:52;;;;;;;9.13;5.03;;;11.00;99.90;;;;;;5060080;28;20206;-68
2023/03/18 00:10:19;;;;;;;10.20;5.13;;;11.00;99.90;;;;;;5061073;28;20202;-70
2023/03/18 00:12:46;;;;;;;10.53;5.10;;;11.00;99.90;;;;;;5040194;28;20290;-71
2023/03/18 00:15:15;;;;;;;10.60;5.10;;;11.00;99.90;;;;;;5042910;28;20222;-68
2023/03/18 00:17:42;;;;;;;11.57;5.83;;;11.00;99.90;;;;;;5049889;28;20309;-71
2023/03/18 00:20:11;;;;;;;9.57;4.97;;;11.00;99.90;;;;;;5022299;28;20701;-69
2023/03/18 00:22:40;;;;;;;11.53;5.23;;;11.00;99.90;;;;;;5020635;28;20286;-70
2023/03/18 00:25:09;;;;;;;13.87;5.27;;;11.00;99.90;;;;;;5034791;28;20559;-70
2023/03/18 00:27:40;;;;;;;10.93;5.00;;;11.10;99.90;;;;;;5038050;28;20231;-69
2023/03/18 00:30:08;;;;;;;7.80;4.90;;;11.10;99.90;;;;;;5035289;28;20252;-69
2023/03/18 00:32:35;;;;;;;9.73;4.73;;;11.00;99.90;;;;;;5037967;28;20241;-72
2023/03/18 00:35:02;;;;;;;10.10;4.47;;;11.10;99.90;;;;;;5032333;28;20557;-69
2023/03/18 00:37:30;;;;;;;8.63;4.87;;;11.00;99.90;;;;;;5022347;28;20195;-73
2023/03/18 00:40:05;;;;;;;10.03;4.90;;;11.10;99.90;;;;;;5010429;28;20318;-70
2023/03/18 00:42:38;;;;;;;12.13;5.27;;;11.10;99.90;;;;;;5037819;28;20551;-69
2023/03/18 00:45:09;;;;;;;10.73;4.60;;;11.20;99.90;;;;;;5036191;28;20969;-70
2023/03/18 00:47:37;;;;;;;8.13;4.47;;;11.20;99.90;;;;;;5038229;28;20211;-70
2023/03/18 00:50:07;;;;;;;11.63;4.13;;;11.10;99.90;;;;;;5038125;28;20202;-70
2023/03/18 00:52:35;;;;;;;7.80;4.73;;;11.10;99.90;;;;;;5034453;28;20576;-69
2023/03/18 00:55:02;;;;;;;7.93;4.27;;;11.00;99.90;;;;;;5053484;28;20268;-69
2023/03/18 00:57:30;;;;;;;8.03;4.97;;;11.00;99.90;;;;;;5053557;28;20612;-68
2023/03/18 00:59:58;;;;;;;8.77;4.67;;;11.00;99.90;;;;;;5040263;28;20219;-68
2023/03/18 01:02:27;;;;;;;7.60;4.53;;;10.90;99.90;;;;;;5034763;28;20223;-70
2023/03/18 01:04:55;;;;;;;10.57;4.23;;;10.90;99.90;;;;;;5038425;28;20196;-68
2023/03/18 01:07:23;;;;;;;10.43;5.00;;;11.00;99.90;;;;;;5039579;28;20197;-68
2023/03/18 01:09:51;;;;;;;10.23;4.60;;;10.90;99.90;;;;;;5035781;28;20220;-71
2023/03/18 01:12:18;;;;;;;7.77;4.67;;;10.90;99.90;;;;;;5037219;28;20208;-68
2023/03/18 01:14:45;;;;;;;13.37;5.17;;;10.90;99.90;;;;;;5037437;28;20207;-69
2023/03/18 01:17:13;;;;;;;11.03;4.50;;;11.00;99.90;;;;;;5039879;28;20212;-69
2023/03/18 01:19:41;;;;;;;8.03;4.07;;;11.00;99.90;;;;;;5060339;28;20214;-68
2023/03/18 01:22:08;;;;;;;9.87;4.20;;;11.10;99.90;;;;;;5027192;28;20607;-70
2023/03/18 01:24:41;;;;;;;8.50;4.23;;;11.10;99.90;;;;;;5059308;28;20206;-69
2023/03/18 01:27:09;;;;;;;13.83;4.53;;;11.10;91.90;;;;;;5057742;28;20202;-70
2023/03/18 01:29:38;;;;;;;10.83;4.50;;;11.20;99.90;;;;;;5059003;28;20220;-70
2023/03/18 01:32:12;;;;;;;12.07;4.93;;;11.10;99.90;;;;;;5058457;28;20625;-68
2023/03/18 01:34:40;;;;;;;8.17;4.27;;;11.10;99.90;;;;;;5059726;28;20198;-67
2023/03/18 01:37:07;;;;;;;8.37;4.67;;;11.00;99.90;;;;;;5059409;28;20210;-67
2023/03/18 01:39:37;;;;;;;5.77;4.10;;;11.00;99.90;;;;;;5040722;28;20271;-68
2023/03/18 01:42:10;;;;;;;7.73;4.47;;;10.90;99.90;;;;;;5058396;28;20190;-67
2023/03/18 01:44:37;;;;;;;11.83;4.83;;;10.70;1.00;;;;;;5042533;28;20218;-68
2023/03/18 01:47:06;;;;;;;11.03;5.30;;;10.70;1.00;;;;;;5042294;28;20226;-67
2023/03/18 01:49:42;;;;;;;10.20;5.57;;;10.70;1.00;;;;;;5039507;28;20717;-68
2023/03/18 01:52:15;;;;;;;9.73;5.37;;;10.50;1.00;;;;;;5057636;28;20206;-68
2023/03/18 01:54:48;;;;;;;9.57;5.17;;;10.50;34.20;;;;;;5058089;28;20264;-69
2023/03/18 01:57:16;;;;;;;7.90;5.03;;;10.50;99.90;;;;;;5039206;28;20607;-68
2023/03/18 01:59:47;;;;;;;8.20;5.20;;;10.50;1.00;;;;;;5052716;28;21098;-70
2023/03/18 02:02:16;;;;;;;10.93;5.63;;;10.50;1.00;;;;;;5048508;22;20607;-67
2023/03/18 02:04:56;;;;;;;8.90;4.40;;;10.50;1.00;;;;;;5041671;28;20200;-66
2023/03/18 02:07:26;;;;;;;10.33;4.77;;;10.40;1.00;;;;;;5027389;28;20434;-66
2023/03/18 02:09:58;;;;;;;9.40;4.77;;;10.40;1.00;;;;;;5042850;28;20246;-67
2023/03/18 02:12:44;;;;;;;7.43;5.00;;;10.40;1.00;;;;;;5050793;28;20192;-66
2023/03/18 02:15:20;;;;;;;10.07;5.10;;;10.30;1.00;;;;;;5068712;28;20528;-66
2023/03/18 02:18:05;;;;;;;7.93;5.33;;;10.30;1.00;;;;;;5049642;28;20205;-67
2023/03/18 02:20:36;;;;;;;11.77;4.97;;;10.20;1.00;;;;;;5060009;28;20596;-66
2023/03/18 02:23:19;;;;;;;10.03;5.20;;;10.10;1.00;;;;;;5035022;28;20288;-66
2023/03/18 02:26:00;;;;;;;12.47;5.50;;;10.10;1.00;;;;;;5036442;28;20219;-66
2023/03/18 02:28:30;;;;;;;9.67;5.13;;;10.30;1.00;;;;;;5035242;28;20294;-66
2023/03/18 02:31:02;;;;;;;10.20;5.20;;;10.30;1.00;;;;;;5053036;28;20204;-66
2023/03/18 02:33:34;;;;;;;8.93;5.00;;;10.30;99.90;;;;;;5050772;28;20225;-67
2023/03/18 02:36:26;;;;;;;8.83;4.30;;;10.30;99.90;;;;;;5054292;28;20199;-66
2023/03/18 02:38:56;;;;;;;9.73;4.47;;;10.30;99.90;;;;;;5026468;28;20192;-66
2023/03/18 02:41:28;;;;;;;7.03;4.40;;;10.40;99.90;;;;;;5047367;28;20254;-66
2023/03/18 02:43:56;;;;;;;8.87;4.37;;;10.40;99.90;;;;;;5046546;28;20216;-65
2023/03/18 02:46:46;;;;;;;8.47;4.00;;;10.50;99.90;;;;;;5029770;28;20341;-66
2023/03/18 02:49:14;;;;;;;9.97;4.43;;;10.60;99.90;;;;;;5056536;28;20755;-66
2023/03/18 02:51:41;;;;;;;7.67;4.30;;;10.60;99.90;;;;;;5062770;28;20282;-67
2023/03/18 02:54:22;;;;;;;10.00;4.20;;;10.60;99.90;;;;;;5036693;28;20678;-65
2023/03/18 02:56:50;;;;;;;9.07;4.10;;;10.60;99.90;;;;;;5054254;28;20260;-68
2023/03/18 02:59:20;;;;;;;11.77;4.17;;;10.60;99.90;;;;;;5063162;28;20196;-68
2023/03/18 03:01:50;;;;;;;8.87;3.70;;;10.60;99.90;;;;;;5035041;28;20188;-68
2023/03/18 03:04:20;;;;;;;12.87;4.37;;;10.60;99.90;;;;;;5039943;28;20222;-68
2023/03/18 03:06:47;;;;;;;8.70;4.20;;;10.70;99.90;;;;;;5052739;28;20718;-66
2023/03/18 03:09:16;;;;;;;9.90;4.17;;;10.70;99.90;;;;;;5021140;28;20561;-69
2023/03/18 03:11:45;;;;;;;9.20;3.87;;;10.60;99.90;;;;;;5038932;28;20204;-68
2023/03/18 03:14:17;;;;;;;6.67;3.80;;;10.50;99.90;;;;;;5022857;28;20192;-69
2023/03/18 03:16:48;;;;;;;8.70;4.43;;;10.40;99.90;;;;;;5022482;28;20204;-68
2023/03/18 03:19:16;;;;;;;8.37;4.10;;;10.40;99.90;;;;;;5039460;28;20707;-67
2023/03/18 03:21:43;;;;;;;5.50;3.67;;;10.50;99.90;;;;;;5031633;28;20353;-69
2023/03/18 03:24:13;;;;;;;10.27;4.50;;;10.60;99.90;;;;;;5040230;28;20656;-69
2023/03/18 03:26:40;;;;;;;11.77;4.57;;;10.50;99.90;;;;;;5022905;28;20204;-68
2023/03/18 03:29:07;;;;;;;10.60;4.43;;;10.50;99.90;;;;;;5039751;28;20265;-66
2023/03/18 03:31:34;;;;;;;5.37;3.97;;;10.40;99.90;;;;;;5046114;28;20210;-67
2023/03/18 03:34:04;;;;;;;8.80;4.07;;;10.40;99.90;;;;;;5029665;28;20647;-67
2023/03/18 03:36:31;;;;;;;7.33;4.50;;;10.20;99.90;;;;;;5045580;28;20302;-64
2023/03/18 03:38:58;;;;;;;7.87;3.80;;;10.20;99.90;;;;;;5020985;28;20289;-67
2023/03/18 03:41:26;;;;;;;7.10;4.60;;;10.10;99.90;;;;;;5038171;28;20216;-61
2023/03/18 03:43:53;;;;;;;9.23;3.93;;;9.90;99.90;;;;;;5038741;28;20188;-60
2023/03/18 03:46:20;;;;;;;8.87;4.20;;;9.80;99.90;;;;;;5044118;28;20736;-60
2023/03/18 03:48:48;;;;;;;13.03;5.50;;;9.60;1.00;;;;;;5038511;28;20295;-61
2023/03/18 03:51:15;;;;;;;13.20;5.07;;;9.60;1.00;;;;;;5035516;28;20204;-61
2023/03/18 03:53:44;;;;;;;9.53;4.87;;;9.70;1.00;;;;;;5020380;28;20205;-66
2023/03/18 03:56:14;;;;;;;11.20;5.13;;;9.60;1.00;;;;;;5045293;28;20732;-66
2023/03/18 03:58:41;;;;;;;7.30;4.77;;;9.70;1.00;;;;;;5038283;28;20237;-65
2023/03/18 04:01:08;;;;;;;9.67;4.73;;;9.70;1.00;;;;;;5037378;28;20216;-65
2023/03/18 04:03:36;;;;;;;9.37;4.70;;;9.70;99.90;;;;;;5052094;28;20709;-65
2023/03/18 04:06:06;;;;;;;8.57;5.47;;;9.70;99.90;;;;;;5065962;28;20191;-66
2023/03/18 04:08:36;;;;;;;9.13;4.67;;;9.60;99.90;;;;;;5057116;28;20277;-69
2023/03/18 04:11:04;;;;;;;8.33;4.87;;;9.50;99.90;;;;;;5041741;28;20271;-68
2023/03/18 04:13:31;;;;;;;8.13;5.20;;;9.40;1.00;;;;;;5066257;28;20195;-68
2023/03/18 04:15:59;;;;;;;6.80;5.33;;;9.30;1.00;;;;;;5064461;28;20642;-68
2023/03/18 04:18:26;;;;;;;8.53;5.37;;;9.20;1.00;;;;;;5061164;28;20649;-66
2023/03/18 04:20:53;;;;;;;10.47;5.77;;;9.10;1.00;;;;;;5057567;28;20227;-65
2023/03/18 04:23:38;;;;;;;9.07;5.57;;;9.20;1.00;;;;;;5057059;28;20752;-66
2023/03/18 04:26:05;;;;;;;11.30;5.73;;;9.20;1.00;;;;;;5059257;28;20200;-65
2023/03/18 04:28:33;;;;;;;8.30;5.23;;;9.40;1.00;;;;;;5058179;28;20223;-65
2023/03/18 04:31:01;;;;;;;9.70;5.00;;;9.40;99.90;;;;;;5044177;28;20199;-63
2023/03/18 04:33:29;;;;;;;10.60;5.93;;;9.40;99.90;;;;;;5057602;28;20203;-66
2023/03/18 04:35:57;;;;;;;8.03;5.30;;;9.50;99.90;;;;;;5059654;28;20188;-65
2023/03/18 04:38:24;;;;;;;10.30;5.33;;;9.50;99.90;;;;;;5072620;28;20318;-67
2023/03/18 04:40:52;;;;;;;7.27;4.87;;;9.40;99.90;;;;;;5056985;28;20698;-68
2023/03/18 04:43:19;;;;;;;10.37;5.20;;;9.50;65.70;;;;;;5057194;28;20204;-68
2023/03/18 04:45:48;;;;;;;9.90;5.17;;;9.40;65.80;;;;;;5065168;28;20202;-66
2023/03/18 04:48:16;;;;;;;7.10;4.90;;;9.30;99.90;;;;;;5057208;28;20585;-69
2023/03/18 04:50:44;;;;;;;8.87;5.47;;;9.30;99.90;;;;;;5055482;28;20263;-68
2023/03/18 04:53:17;;;;;;;12.70;5.60;;;9.30;99.90;;;;;;5054765;28;20668;-68
2023/03/18 04:55:44;;;;;;;11.80;5.10;;;9.20;99.90;;;;;;5064799;28;20257;-67
2023/03/18 04:58:13;;;;;;;9.87;5.63;;;9.30;68.50;;;;;;5048856;28;20697;-67
2023/03/18 05:00:48;;;;;;;7.43;5.73;;;9.20;43.30;;;;;;5056847;28;20665;-67
2023/03/18 05:03:27;;;;;;;8.70;5.37;;;9.20;98.20;;;;;;5056323;28;20309;-66
2023/03/18 05:05:54;;;;;;;9.33;5.50;;;9.10;99.90;;;;;;5052605;28;20671;-66
2023/03/18 05:08:28;;;;;;;7.63;5.83;;;9.10;99.90;;;;;;5057228;28;20538;-67
2023/03/18 05:10:55;;;;;;;10.30;5.90;;;9.00;99.90;;;;;;5056390;28;20340;-66
2023/03/18 05:13:22;;;;;;;11.37;6.60;;;9.00;99.90;;;;;;5057596;28;20618;-66
2023/03/18 05:15:51;;;;;;;11.50;6.00;;;8.90;99.90;;;;;;5047942;28;20203;-67
2023/03/18 05:18:19;;;;;;;8.97;6.73;;;8.90;99.90;;;;;;5045373;28;20207;-67
2023/03/18 05:20:48;;;;;;;11.73;6.70;;;8.90;99.90;;;;;;5047927;28;20595;-68
2023/03/18 05:23:17;;;;;;;9.27;6.47;;;8.90;1.00;;;;;;5057158;28;20229;-68
2023/03/18 05:25:51;;;;;;;10.20;6.60;;;8.80;1.00;;;;;;5058169;28;20673;-64
2023/03/18 05:28:20;;;;;;;12.60;7.90;;;8.80;1.00;;;;;;5056516;28;20252;-65
2023/03/18 05:31:06;;;;;;;11.03;6.53;;;8.80;1.00;;;;;;5057684;28;20222;-65
2023/03/18 05:33:37;;;;;;;12.37;7.13;;;8.90;1.00;;;;;;5046498;28;20191;-65
2023/03/18 05:36:04;;;;;;;12.03;7.20;;;9.10;1.00;;;;;;5055074;28;20256;-67
2023/03/18 05:38:37;;;;;;;10.93;7.30;;;9.10;99.90;;;;;;5063287;28;20228;-65
2023/03/18 05:41:05;;;;;;;11.50;6.77;;;9.10;99.90;;;;;;5040502;28;20222;-63
2023/03/18 05:43:37;;;;;;;11.47;6.90;;;9.20;99.90;;;;;;5054650;28;20312;-66
2023/03/18 05:46:04;;;;;;;11.70;7.80;;;9.30;99.90;;;;;;5064314;28;20234;-65
2023/03/18 05:48:42;;;;;;;12.57;7.27;;;9.40;99.90;;;;;;5056661;28;20188;-66
2023/03/18 05:51:09;;;;;;;12.67;6.83;;;9.50;1.00;;;;;;5045095;28;20237;-66
2023/03/18 05:53:38;;;;;;;12.87;7.43;;;9.70;1.00;;;;;;5063609;28;20198;-64
2023/03/18 05:56:15;;;;;;;10.83;7.00;;;9.90;1.00;;;;;;5057436;28;20389;-65
2023/03/18 05:58:44;;;;;;;12.00;6.93;;;10.00;1.00;;;;;;5048877;28;20753;-66
2023/03/18 06:01:24;;;;;;;10.33;6.17;;;10.00;1.00;;;;;;5070316;28;20218;-66
2023/03/18 06:03:52;;;;;;;9.20;6.40;;;10.10;1.00;;;;;;5055339;28;20289;-66
2023/03/18 06:06:19;;;;;;;10.17;6.43;;;10.10;1.00;;;;;;5062903;28;20882;-66
2023/03/18 06:08:47;;;;;;;12.80;7.27;;;10.30;1.00;;;;;;5057647;28;20278;-66
2023/03/18 06:11:14;;;;;;;9.17;6.60;;;10.40;1.00;;;;;;5062394;28;20206;-66
2023/03/18 06:13:42;;;;;;;12.10;7.00;;;10.50;99.90;;;;;;5037999;28;20678;-64
2023/03/18 06:16:09;;;;;;;8.77;6.17;;;10.60;99.90;;;;;;5058862;28;20412;-65
2023/03/18 06:18:37;;;;;;;9.93;5.87;;;11.30;99.90;;;;;;5047608;28;20199;-67
2023/03/18 06:21:07;;;;;;;8.47;4.60;;;11.30;99.90;;;;;;5060484;28;20217;-67
2023/03/18 06:23:36;;;;;;;11.43;5.70;;;11.10;99.90;;;;;;5073284;28;20229;-65
2023/03/18 06:26:03;;;;;;;8.43;5.63;;;11.00;99.90;;;;;;5039422;28;20248;-66
2023/03/18 06:28:35;;;;;;;9.47;5.83;;;10.90;99.90;;;;;;5056344;28;20195;-66
2023/03/18 06:31:09;;;;;;;7.40;5.50;;;10.80;99.90;;;;;;5041370;28;20198;-65
2023/03/18 06:33:37;;;;;;;8.87;5.60;;;10.90;99.90;;;;;;5037112;28;20207;-66
2023/03/18 06:36:07;;;;;;;6.27;5.47;;;11.00;99.90;;;;;;5054679;28;20227;-66
2023/03/18 06:38:34;;;;;;;12.20;5.57;;;11.20;99.90;;;;;;5054867;28;20365;-66
2023/03/18 06:41:01;;;;;;;7.43;5.47;;;11.30;99.90;;;;;;5056069;28;20309;-63
2023/03/18 06:43:33;;;;;;;9.20;5.37;;;11.30;99.90;;;;;;5062020;28;20199;-66
2023/03/18 06:46:01;;;;;;;7.80;6.10;;;11.20;99.90;;;;;;5056960;28;20183;-66
2023/03/18 06:48:29;;;;;;;9.80;6.00;;;11.20;99.90;;;;;;5046618;28;20744;-65
2023/03/18 06:50:57;;;;;;;6.97;5.30;;;11.30;99.90;;;;;;5044159;28;20625;-66
2023/03/18 06:53:30;;;;;;;7.67;5.77;;;11.30;99.90;;;;;;5055317;28;20234;-68
2023/03/18 06:55:57;;;;;;;8.30;5.57;;;11.30;99.90;;;;;;5063446;28;20201;-66
2023/03/18 06:58:31;;;;;;;11.37;5.60;;;11.30;99.90;;;;;;5053246;28;20202;-64
2023/03/18 07:01:04;;;;;;;9.37;5.70;;;11.30;99.90;;;;;;5045218;28;20751;-66
2023/03/18 07:03:37;;;;;;;7.83;5.60;;;11.40;99.90;;;;;;5062209;28;20228;-66
2023/03/18 07:06:08;;;;;;;8.63;5.13;;;11.70;99.90;;;;;;5054911;28;20203;-67
2023/03/18 07:08:37;;;;;;;6.90;4.93;;;11.80;91.50;;;;;;5046961;28;20231;-67
2023/03/18 07:11:06;;;;;;;7.43;5.27;;;11.70;59.80;;;;;;5053347;28;20196;-68
2023/03/18 07:13:35;;;;;;;9.10;5.60;;;11.90;65.00;;;;;;5061934;28;20226;-68
2023/03/18 07:16:06;;;;;;;9.43;5.00;;;12.00;14.30;;;;;;5046585;28;20590;-69
2023/03/18 07:18:33;;;;;;;8.03;4.67;;;12.20;9.50;;;;;;5045818;28;20654;-67
2023/03/18 07:21:00;;;;;;;9.20;5.63;;;12.40;1.00;;;;;;5057317;28;20247;-67
2023/03/18 07:23:27;;;;;;;7.17;4.60;;;13.10;1.00;;;;;;5071076;28;20199;-67
2023/03/18 07:25:56;;;;;;;7.93;4.53;;;13.50;1.00;;;;;;5057145;28;20554;-67
2023/03/18 07:28:23;;;;;;;7.40;4.60;;;13.80;1.00;;;;;;5057236;28;20191;-66
2023/03/18 07:30:50;;;;;;;5.67;4.20;;;13.90;1.00;;;;;;5058343;28;20204;-69
2023/03/18 07:33:20;;;;;;;10.45;4.80;;;14.30;1.00;;;;;;5065716;28;20218;-69
2023/03/18 07:35:47;;;;;;;7.13;4.40;;;13.90;1.00;;;;;;5066448;28;20206;-67
2023/03/18 07:38:14;;;;;;;9.23;4.83;;;13.40;1.00;;;;;;5047984;28;20215;-66
2023/03/18 07:40:41;;;;;;;12.90;5.00;;;13.10;1.00;;;;;;5059733;28;20278;-64
2023/03/18 07:43:08;;;;;;;6.53;4.13;;;12.80;1.00;;;;;;5055446;28;20246;-67
2023/03/18 07:45:36;;;;;;;7.77;4.53;;;12.60;1.00;;;;;;5064632;28;20260;-67
2023/03/18 07:48:04;;;;;;;7.43;5.40;;;12.40;1.00;;;;;;5059297;28;20573;-67
2023/03/18 07:50:31;;;;;;;5.33;4.53;;;12.40;1.00;;;;;;5059875;28;20199;-67
2023/03/18 07:52:58;;;;;;;8.43;5.23;;;12.40;1.00;;;;;;5059949;28;20227;-68
2023/03/18 07:55:25;;;;;;;7.03;5.13;;;12.50;1.00;;;;;;5066175;28;20203;-67
2023/03/18 07:57:52;;;;;;;8.17;5.07;;;12.50;1.00;;;;;;5059247;28;20234;-68
2023/03/18 08:00:20;;;;;;;7.47;4.73;;;12.50;1.00;;;;;;5041712;28;20214;-65
2023/03/18 08:02:47;;;;;;;6.37;4.23;;;12.50;1.00;;;;;;5065533;28;20333;-67
2023/03/18 08:05:14;;;;;;;8.07;4.97;;;12.60;1.00;;;;;;5058001;28;20682;-67
2023/03/18 08:07:42;;;;;;;7.73;4.97;;;12.70;1.00;;;;;;5056823;28;20210;-67
2023/03/18 08:10:10;;;;;;;7.83;4.70;;;12.70;1.00;;;;;;5059161;28;20219;-67
2023/03/18 08:12:37;;;;;;;7.80;4.93;;;12.80;1.00;;;;;;5057091;28;20729;-67
2023/03/18 08:15:21;;;;;;;8.10;4.53;;;12.90;1.00;;;;;;5059971;28;20206;-66
2023/03/18 08:17:48;;;;;;;6.17;4.87;;;12.90;1.00;;;;;;5060474;28;20191;-66
2023/03/18 08:20:15;;;;;;;7.90;4.67;;;13.00;1.00;;;;;;5059297;28;20211;-67
2023/03/18 08:22:44;;;;;;;7.07;4.87;;;13.40;1.00;;;;;;5058207;28;20218;-67
2023/03/18 08:25:13;;;;;;;7.57;4.77;;;13.70;1.00;;;;;;5058843;28;20194;-67
2023/03/18 08:27:40;;;;;;;7.83;4.90;;;13.90;1.00;;;;;;5058491;28;20192;-67
2023/03/18 08:30:08;;;;;;;5.22;3.90;;;14.60;1.00;;;;;;5060454;28;20742;-67
2023/03/18 08:32:36;;;;;;;7.00;4.60;;;15.30;1.00;;;;;;5041042;28;20199;-66
2023/03/18 08:35:04;;;;;;;7.05;4.43;;;15.70;1.00;;;;;;5060955;28;20218;-67
2023/03/18 08:37:31;;;;;;;6.43;4.45;;;15.40;1.00;;;;;;5054584;28;20758;-67
2023/03/18 08:39:58;;;;;;;6.57;3.75;;;16.30;1.00;;;;;;5057733;28;20200;-65
2023/03/18 08:42:26;;;;;;;6.18;4.18;;;16.40;1.00;;;;;;5064188;28;20229;-67
2023/03/18 08:44:53;;;;;;;6.00;4.18;;;16.70;1.00;;;;;;5059064;28;20204;-67
2023/03/18 08:47:24;;;;;;;8.75;4.28;;;16.20;1.00;;;;;;5049273;28;20804;-68
2023/03/18 08:49:51;;;;;;;5.82;3.88;;;15.70;1.00;;;;;;5058939;28;20223;-67
2023/03/18 08:52:18;;;;;;;7.13;4.20;;;15.20;1.00;;;;;;5064567;28;20289;-67
2023/03/18 08:54:46;;;;;;;5.00;3.78;;;14.70;1.00;;;;;;5058144;28;20603;-66
2023/03/18 08:57:14;;;;;;;6.05;3.90;;;14.30;1.00;;;;;;5047716;28;20214;-66
2023/03/18 08:59:42;;;;;;;6.80;4.23;;;14.30;1.00;;;;;;5057463;28;20210;-67
2023/03/18 09:02:15;;;;;;;5.87;4.10;;;14.20;1.00;;;;;;5058365;28;20695;-65
2023/03/18 09:04:43;;;;;;;7.03;4.23;;;14.10;1.00;;;;;;5065628;28;20192;-66
2023/03/18 09:07:11;;;;;;;6.57;4.10;;;14.20;1.00;;;;;;5058388;28;20214;-66
2023/03/18 09:09:39;;;;;;;5.77;3.80;;;14.10;1.00;;;;;;5057712;28;20218;-66
2023/03/18 09:12:13;;;;;;;5.50;4.07;;;14.10;1.00;;;;;;5056755;28;20260;-68
2023/03/18 09:14:42;;;;;;;6.33;3.80;;;14.30;1.00;;;;;;5056775;28;20278;-66
2023/03/18 09:17:09;;;;;;;6.90;4.20;;;14.20;1.00;;;;;;5057696;28;20195;-66
2023/03/18 09:19:37;;;;;;;9.83;4.43;;;13.90;1.00;;;;;;5058607;28;20674;-66
2023/03/18 09:22:04;;;;;;;7.10;4.27;;;13.80;1.00;;;;;;5057522;28;20310;-67
2023/03/18 09:24:31;;;;;;;6.20;4.20;;;13.90;1.00;;;;;;5058765;28;20320;-68
2023/03/18 09:26:58;;;;;;;7.33;4.33;;;13.80;1.00;;;;;;5040144;28;20205;-67
2023/03/18 09:29:26;;;;;;;5.57;3.97;;;13.70;1.00;;;;;;5065581;28;20275;-67
2023/03/18 09:31:54;;;;;;;8.70;5.80;;;13.90;1.00;;;;;;5056937;28;20219;-67
2023/03/18 09:34:21;;;;;;;5.90;4.23;;;13.70;1.00;;;;;;5056047;28;20231;-67
2023/03/18 09:36:50;;;;;;;5.33;3.50;;;13.70;1.00;;;;;;5055775;28;20195;-66
2023/03/18 09:39:20;;;;;;;7.20;4.63;;;13.80;1.00;;;;;;5057228;28;20285;-67
2023/03/18 09:42:02;;;;;;;5.70;3.85;;;14.10;1.00;;;;;;5058079;28;20207;-67
2023/03/18 09:44:32;;;;;;;5.65;3.70;;;14.40;1.00;;;;;;5055744;28;20272;-67
2023/03/18 09:47:30;;;;;;;8.30;4.00;;;14.50;1.00;;;;;;5055831;28;20270;-68
2023/03/18 09:50:09;;;;;;;3.63;3.25;;;14.80;1.00;;;;;;5054676;28;20254;-66
2023/03/18 09:53:11;;;;;;;4.95;2.90;;;15.00;1.00;;;;;;5064995;28;20199;-66
2023/03/18 09:55:45;;;;;;;3.90;2.40;;;14.90;1.00;;;;;;5053282;28;20678;-65
2023/03/18 09:58:24;;;;;;;6.78;2.50;;;15.10;1.00;;;;;;5060905;28;20298;-65
2023/03/18 10:00:58;;;;;;;6.03;2.53;;;17.00;1.00;;;;;;5055321;28;20723;-66
2023/03/18 10:03:59;;;;;;;4.22;2.53;;;20.40;1.00;;;;;;5055211;28;20305;-66
2023/03/18 10:06:26;;;;;;;5.80;3.22;;;20.90;1.00;;;;;;5059805;28;20191;-69
2023/03/18 10:09:22;;;;;;;4.28;2.88;;;21.80;1.00;;;;;;5058004;28;20553;-69
2023/03/18 10:11:52;;;;;;;4.25;3.10;;;20.20;1.00;;;;;;5033843;28;20287;-69
2023/03/18 10:14:25;;;;;;;4.25;3.13;;;17.70;1.00;;;;;;5073107;28;20218;-66
2023/03/18 10:17:29;;;;;;;3.97;2.95;;;18.50;1.00;;;;;;5057558;28;20229;-66
2023/03/18 10:19:59;;;;;;;3.00;2.70;;;19.80;1.00;;;;;;5009139;28;20190;-69
2023/03/18 10:22:53;;;;;;;3.60;2.55;;;21.60;1.00;;;;;;5072780;28;20276;-69
2023/03/18 10:25:42;;;;;;;3.95;2.28;;;23.00;1.00;;;;;;5040475;28;20662;-69
2023/03/18 10:28:15;;;;;;;4.05;2.15;;;24.00;1.00;;;;;;5072511;28;20244;-68
2023/03/18 10:31:07;;;;;;;3.85;2.28;;;24.70;1.00;;;;;;5058703;28;20697;-68
2023/03/18 10:34:03;;;;;;;4.03;2.42;;;28.20;1.00;;;;;;5057578;28;20198;-69
2023/03/18 10:36:36;;;;;;;4.38;2.63;;;24.50;1.00;;;;;;5058058;28;20670;-68
2023/03/18 10:39:11;;;;;;;4.38;2.92;;;23.00;1.00;;;;;;5051160;28;20736;-67
2023/03/18 10:41:42;;;;;;;4.93;2.72;;;23.20;1.00;;;;;;5062048;28;20293;-66
2023/03/18 10:44:36;;;;;;;4.07;2.80;;;23.20;1.00;;;;;;5067748;28;20202;-67
2023/03/18 10:47:19;;;;;;;5.43;3.13;;;23.90;1.00;;;;;;5056589;28;20306;-65
2023/03/18 10:50:01;;;;;;;4.32;2.75;;;23.70;1.00;;;;;;5055500;28;20202;-67
2023/03/18 10:52:40;;;;;;;4.78;2.70;;;24.60;1.00;;;;;;5058052;28;20218;-67
2023/03/18 10:55:17;;;;;;;3.75;2.63;;;25.20;1.00;;;;;;5073218;28;20694;-62
2023/03/18 10:57:44;;;;;;;3.35;2.30;;;24.50;1.00;;;;;;5054870;28;20194;-61
2023/03/18 11:00:27;;;;;;;3.75;2.75;;;23.30;1.00;;;;;;5058229;28;20967;-62
2023/03/18 11:02:55;;;;;;;3.33;2.50;;;22.60;1.00;;;;;;5058943;28;20222;-63
2023/03/18 11:05:27;;;;;;;4.00;3.05;;;23.80;1.00;;;;;;5051149;28;20558;-66
2023/03/18 11:07:59;;;;;;;5.18;3.00;;;25.40;1.00;;;;;;5060550;28;20183;-63
2023/03/18 11:10:42;;;;;;;5.15;2.42;;;24.60;1.00;;;;;;5059168;28;20257;-63
2023/03/18 11:13:17;;;;;;;4.38;2.50;;;24.70;1.00;;;;;;5060961;28;20202;-63
2023/03/18 11:15:49;;;;;;;3.65;2.90;;;24.60;1.00;;;;;;5060112;28;20715;-63
2023/03/18 11:18:24;;;;;;;4.28;3.03;;;21.20;1.00;;;;;;5061089;28;20282;-63
2023/03/18 11:21:00;;;;;;;3.47;2.67;;;20.90;1.00;;;;;;5060115;28;20595;-63
2023/03/18 11:23:47;;;;;;;3.28;2.95;;;21.90;1.00;;;;;;5059477;28;20241;-63
2023/03/18 11:26:44;;;;;;;3.55;2.28;;;21.60;1.00;;;;;;5042158;28;20550;-64
2023/03/18 11:29:17;;;;;;;2.80;2.15;;;23.30;1.00;;;;;;5060045;28;20528;-63
2023/03/18 11:32:00;;;;;;;4.47;2.22;;;21.70;1.00;;;;;;5065751;28;20195;-64
2023/03/18 11:34:29;;;;;;;4.32;2.92;;;20.40;1.00;;;;;;5051296;28;20663;-64
2023/03/18 11:36:58;;;;;;;3.85;2.20;;;20.80;1.00;;;;;;5059320;28;20241;-63
2023/03/18 11:39:27;;;;;;;3.97;2.58;;;21.70;1.00;;;;;;5060538;28;20219;-64
2023/03/18 11:41:54;;;;;;;3.90;2.38;;;22.50;1.00;;;;;;5058130;28;20543;-64
2023/03/18 11:44:31;;;;;;;4.93;2.70;;;22.60;1.00;;;;;;5060463;28;20264;-63
2023/03/18 11:47:22;;;;;;;5.60;2.30;;;24.10;1.00;;;;;;5067346;28;20202;-65
2023/03/18 11:49:50;;;;;;;3.15;2.13;;;24.40;1.00;;;;;;5060819;28;20536;-63
2023/03/18 11:53:05;;;;;;;2.30;2.10;;;24.70;1.00;;;;;;5064611;28;20199;-64
2023/03/18 11:55:47;;;;;;;3.72;2.53;;;24.10;1.00;;;;;;5056004;28;20219;-63
2023/03/18 11:58:37;;;;;;;3.80;2.35;;;23.20;1.00;;;;;;5043339;28;20232;-63
2023/03/18 12:01:38;;;;;;;3.13;2.58;;;21.60;1.00;;;;;;5056633;28;20183;-64
2023/03/18 12:04:12;;;;;;;4.85;2.72;;;22.70;1.00;;;;;;5060051;28;20336;-63
2023/03/18 12:07:18;;;;;;;5.22;2.60;;;23.50;1.00;;;;;;5058821;28;20207;-64
2023/03/18 12:10:04;;;;;;;3.78;2.55;;;23.70;1.00;;;;;;5058699;28;20264;-63
2023/03/18 12:12:51;;;;;;;2.22;2.03;;;22.50;1.00;;;;;;5058941;28;20658;-62
2023/03/18 12:16:10;;;;;;;3.00;1.85;;;22.60;1.00;;;;;;5061030;28;20237;-63
2023/03/18 12:19:13;;;;;;;2.88;2.20;;;21.80;1.00;;;;;;5018399;28;20558;-62
2023/03/18 12:21:59;;;;;;;2.15;1.90;;;22.10;1.00;;;;;;5058355;28;20725;-63
2023/03/18 12:24:35;;;;;;;2.10;1.90;;;21.90;1.00;;;;;;5058938;28;20342;-63
2023/03/18 12:27:26;;;;;;;2.08;1.80;;;20.70;1.00;;;;;;5059074;28;20245;-63
2023/03/18 12:30:28;;;;;;;4.75;2.30;;;21.10;1.00;;;;;;5061987;28;20195;-64
2023/03/18 12:33:09;;;;;;;3.28;2.08;;;22.00;1.00;;;;;;5060093;28;20746;-63
2023/03/18 12:35:53;;;;;;;3.88;2.10;;;21.20;1.00;;;;;;5060281;28;20191;-64
2023/03/18 12:38:26;;;;;;;3.53;2.05;;;22.00;1.00;;;;;;5058290;28;20219;-62
2023/03/18 12:41:17;;;;;;;2.58;2.17;;;21.90;1.00;;;;;;5057858;28;20179;-63
2023/03/18 12:43:54;;;;;;;3.28;2.35;;;21.40;1.00;;;;;;5065947;28;20302;-64
2023/03/18 12:46:46;;;;;;;3.30;2.25;;;20.90;1.00;;;;;;5058880;28;20658;-63
2023/03/18 12:49:28;;;;;;;2.53;2.05;;;20.40;1.00;;;;;;5057361;28;20258;-63
2023/03/18 12:52:06;;;;;;;1.90;1.70;;;22.40;1.00;;;;;;5056334;28;20674;-63
2023/03/18 12:54:42;;;;;;;3.88;2.17;;;21.20;1.00;;;;;;5051246;28;20195;-62
2023/03/18 12:57:44;;;;;;;3.70;2.75;;;21.20;1.00;;;;;;5052974;28;20274;-63
2023/03/18 13:00:22;;;;;;;4.07;2.10;;;21.20;1.00;;;;;;5065651;28;20305;-63
2023/03/18 13:03:34;;;;;;;4.13;2.22;;;20.70;1.00;;;;;;5056324;28;20785;-63
2023/03/18 13:06:06;;;;;;;4.50;2.08;;;19.80;1.00;;;;;;5044173;28;20695;-64
2023/03/18 13:09:04;;;;;;;3.58;2.15;;;19.50;1.00;;;;;;5059146;28;20214;-62
2023/03/18 13:11:43;;;;;;;1.88;1.60;;;19.90;1.00;;;;;;5056945;28;20208;-62
2023/03/18 13:14:20;;;;;;;4.13;1.90;;;20.40;1.00;;;;;;5053662;28;20638;-62
2023/03/18 13:16:49;;;;;;;3.47;1.70;;;19.30;1.00;;;;;;5058744;28;20194;-62
2023/03/18 13:19:17;;;;;;;3.80;2.00;;;19.20;1.00;;;;;;5057338;28;20273;-65
2023/03/18 13:21:50;;;;;;;2.45;1.83;;;19.30;1.00;;;;;;5046616;28;20240;-64